sensor_id;sensor_type;location;lat;lon;timestamp;P1;durP1;ratioP1;P2;durP2;ratioP2
35223;SDS011;21367;51.930;8.112;2023-07-24T00:04:36;7.50;;;3.33;;
35223;SDS011;21367;51.930;8.112;2023-07-24T00:09:43;6.57;;;3.30;;
35223;SDS011;21367;51.930;8.112;2023-07-24T00:14:46;10.23;;;3.10;;
35223;SDS011;21367;51.930;8.112;2023-07-24T00:19:50;4.65;;;3.15;;
35223;SDS011;21367;51.930;8.112;2023-07-24T00:24:56;5.15;;;3.47;;
35223;SDS011;21367;51.930;8.112;2023-07-24T00:35:04;12.32;;;3.90;;
35223;SDS011;21367;51.930;8.112;2023-07-24T00:40:11;9.13;;;3.67;;
35223;SDS011;21367;51.930;8.112;2023-07-24T00:45:15;8.40;;;3.45;;
35223;SDS011;21367;51.930;8.112;2023-07-24T00:50:19;8.93;;;3.92;;
35223;SDS011;21367;51.930;8.112;2023-07-24T00:55:26;6.72;;;3.30;;
35223;SDS011;21367;51.930;8.112;2023-07-24T01:00:31;5.95;;;3.05;;
35223;SDS011;21367;51.930;8.112;2023-07-24T01:05:36;11.30;;;3.55;;
35223;SDS011;21367;51.930;8.112;2023-07-24T01:10:43;6.95;;;4.00;;
35223;SDS011;21367;51.930;8.112;2023-07-24T01:15:48;7.60;;;3.70;;
35223;SDS011;21367;51.930;8.112;2023-07-24T01:20:59;9.43;;;3.40;;
35223;SDS011;21367;51.930;8.112;2023-07-24T01:26:08;7.47;;;3.10;;
35223;SDS011;21367;51.930;8.112;2023-07-24T01:31:12;9.48;;;3.05;;
35223;SDS011;21367;51.930;8.112;2023-07-24T01:36:17;7.18;;;3.55;;
35223;SDS011;21367;51.930;8.112;2023-07-24T01:41:24;6.20;;;3.00;;
35223;SDS011;21367;51.930;8.112;2023-07-24T01:46:28;11.68;;;3.55;;
35223;SDS011;21367;51.930;8.112;2023-07-24T01:51:32;9.38;;;3.97;;
35223;SDS011;21367;51.930;8.112;2023-07-24T01:56:39;9.82;;;3.35;;
35223;SDS011;21367;51.930;8.112;2023-07-24T02:01:44;11.05;;;3.70;;
35223;SDS011;21367;51.930;8.112;2023-07-24T02:06:49;8.40;;;3.67;;
35223;SDS011;21367;51.930;8.112;2023-07-24T02:11:55;10.15;;;3.58;;
35223;SDS011;21367;51.930;8.112;2023-07-24T02:16:59;8.50;;;3.33;;
35223;SDS011;21367;51.930;8.112;2023-07-24T02:22:03;8.52;;;3.28;;
35223;SDS011;21367;51.930;8.112;2023-07-24T02:27:12;7.65;;;3.88;;
35223;SDS011;21367;51.930;8.112;2023-07-24T02:32:16;12.60;;;3.38;;
35223;SDS011;21367;51.930;8.112;2023-07-24T02:37:24;7.93;;;3.72;;
35223;SDS011;21367;51.930;8.112;2023-07-24T02:42:30;12.88;;;4.10;;
35223;SDS011;21367;51.930;8.112;2023-07-24T02:52:37;8.68;;;3.25;;
35223;SDS011;21367;51.930;8.112;2023-07-24T02:57:43;8.57;;;3.80;;
35223;SDS011;21367;51.930;8.112;2023-07-24T03:07:50;11.77;;;4.35;;
35223;SDS011;21367;51.930;8.112;2023-07-24T03:12:56;10.25;;;3.38;;
35223;SDS011;21367;51.930;8.112;2023-07-24T03:18:00;10.07;;;4.35;;
35223;SDS011;21367;51.930;8.112;2023-07-24T03:23:04;10.55;;;3.20;;
35223;SDS011;21367;51.930;8.112;2023-07-24T03:28:10;12.70;;;3.75;;
35223;SDS011;21367;51.930;8.112;2023-07-24T03:33:14;16.77;;;3.63;;
35223;SDS011;21367;51.930;8.112;2023-07-24T03:38:18;10.93;;;3.72;;
35223;SDS011;21367;51.930;8.112;2023-07-24T03:43:24;10.40;;;3.30;;
35223;SDS011;21367;51.930;8.112;2023-07-24T03:48:28;8.88;;;3.97;;
35223;SDS011;21367;51.930;8.112;2023-07-24T03:53:31;9.55;;;3.45;;
35223;SDS011;21367;51.930;8.112;2023-07-24T03:58:37;13.23;;;4.43;;
35223;SDS011;21367;51.930;8.112;2023-07-24T04:03:42;10.60;;;2.85;;
35223;SDS011;21367;51.930;8.112;2023-07-24T04:08:45;5.55;;;3.60;;
35223;SDS011;21367;51.930;8.112;2023-07-24T04:13:51;7.85;;;3.10;;
35223;SDS011;21367;51.930;8.112;2023-07-24T04:23:58;15.23;;;3.60;;
35223;SDS011;21367;51.930;8.112;2023-07-24T04:29:05;11.70;;;3.33;;
35223;SDS011;21367;51.930;8.112;2023-07-24T04:34:08;6.38;;;3.00;;
35223;SDS011;21367;51.930;8.112;2023-07-24T04:39:12;14.95;;;4.20;;
35223;SDS011;21367;51.930;8.112;2023-07-24T04:44:18;8.32;;;3.83;;
35223;SDS011;21367;51.930;8.112;2023-07-24T04:49:22;7.80;;;3.80;;
35223;SDS011;21367;51.930;8.112;2023-07-24T04:54:25;18.77;;;4.45;;
35223;SDS011;21367;51.930;8.112;2023-07-24T04:59:32;14.32;;;4.75;;
35223;SDS011;21367;51.930;8.112;2023-07-24T05:04:35;15.25;;;4.93;;
35223;SDS011;21367;51.930;8.112;2023-07-24T05:09:39;12.38;;;5.03;;
35223;SDS011;21367;51.930;8.112;2023-07-24T05:14:46;14.75;;;5.43;;
35223;SDS011;21367;51.930;8.112;2023-07-24T05:19:49;9.95;;;5.13;;
35223;SDS011;21367;51.930;8.112;2023-07-24T05:24:53;13.07;;;6.05;;
35223;SDS011;21367;51.930;8.112;2023-07-24T05:29:59;10.40;;;5.35;;
35223;SDS011;21367;51.930;8.112;2023-07-24T05:35:04;23.23;;;7.47;;
35223;SDS011;21367;51.930;8.112;2023-07-24T05:40:08;16.48;;;5.88;;
35223;SDS011;21367;51.930;8.112;2023-07-24T05:45:15;17.80;;;5.82;;
35223;SDS011;21367;51.930;8.112;2023-07-24T05:50:18;9.25;;;5.68;;
35223;SDS011;21367;51.930;8.112;2023-07-24T05:55:22;9.85;;;5.50;;
35223;SDS011;21367;51.930;8.112;2023-07-24T06:00:28;12.20;;;5.72;;
35223;SDS011;21367;51.930;8.112;2023-07-24T06:05:32;12.45;;;4.95;;
35223;SDS011;21367;51.930;8.112;2023-07-24T06:10:36;16.42;;;5.95;;
35223;SDS011;21367;51.930;8.112;2023-07-24T06:15:42;15.18;;;5.97;;
35223;SDS011;21367;51.930;8.112;2023-07-24T06:20:46;10.73;;;5.68;;
35223;SDS011;21367;51.930;8.112;2023-07-24T06:25:50;12.77;;;5.50;;
35223;SDS011;21367;51.930;8.112;2023-07-24T06:30:58;9.43;;;5.15;;
35223;SDS011;21367;51.930;8.112;2023-07-24T06:36:02;10.10;;;5.25;;
35223;SDS011;21367;51.930;8.112;2023-07-24T06:41:06;10.80;;;5.57;;
35223;SDS011;21367;51.930;8.112;2023-07-24T06:46:12;17.73;;;6.53;;
35223;SDS011;21367;51.930;8.112;2023-07-24T06:51:16;12.15;;;6.13;;
35223;SDS011;21367;51.930;8.112;2023-07-24T06:56:19;12.32;;;5.93;;
35223;SDS011;21367;51.930;8.112;2023-07-24T07:01:26;11.35;;;5.85;;
35223;SDS011;21367;51.930;8.112;2023-07-24T07:06:29;13.75;;;6.20;;
35223;SDS011;21367;51.930;8.112;2023-07-24T07:11:33;10.95;;;6.05;;
35223;SDS011;21367;51.930;8.112;2023-07-24T07:16:39;13.57;;;6.13;;
35223;SDS011;21367;51.930;8.112;2023-07-24T07:21:43;9.02;;;5.43;;
35223;SDS011;21367;51.930;8.112;2023-07-24T07:26:47;12.70;;;6.03;;
35223;SDS011;21367;51.930;8.112;2023-07-24T07:31:53;13.70;;;5.78;;
35223;SDS011;21367;51.930;8.112;2023-07-24T07:36:56;14.00;;;5.70;;
35223;SDS011;21367;51.930;8.112;2023-07-24T07:42:00;9.70;;;5.38;;
35223;SDS011;21367;51.930;8.112;2023-07-24T07:47:06;13.23;;;5.40;;
35223;SDS011;21367;51.930;8.112;2023-07-24T07:52:10;13.98;;;6.10;;
35223;SDS011;21367;51.930;8.112;2023-07-24T07:57:17;11.20;;;5.82;;
35223;SDS011;21367;51.930;8.112;2023-07-24T08:02:23;10.43;;;5.43;;
35223;SDS011;21367;51.930;8.112;2023-07-24T08:07:27;8.38;;;4.97;;
35223;SDS011;21367;51.930;8.112;2023-07-24T08:12:31;11.60;;;5.40;;
35223;SDS011;21367;51.930;8.112;2023-07-24T08:17:37;11.32;;;5.72;;
35223;SDS011;21367;51.930;8.112;2023-07-24T08:22:41;12.27;;;5.50;;
35223;SDS011;21367;51.930;8.112;2023-07-24T08:27:44;8.25;;;5.43;;
35223;SDS011;21367;51.930;8.112;2023-07-24T08:32:51;13.80;;;6.03;;
35223;SDS011;21367;51.930;8.112;2023-07-24T08:37:54;11.95;;;5.88;;
35223;SDS011;21367;51.930;8.112;2023-07-24T08:42:58;10.63;;;6.13;;
35223;SDS011;21367;51.930;8.112;2023-07-24T08:48:04;11.20;;;6.30;;
35223;SDS011;21367;51.930;8.112;2023-07-24T08:53:08;9.57;;;5.78;;
35223;SDS011;21367;51.930;8.112;2023-07-24T08:58:12;20.02;;;7.63;;
35223;SDS011;21367;51.930;8.112;2023-07-24T09:03:18;14.38;;;7.55;;
35223;SDS011;21367;51.930;8.112;2023-07-24T09:08:29;12.80;;;8.50;;
35223;SDS011;21367;51.930;8.112;2023-07-24T09:13:34;14.43;;;7.55;;
35223;SDS011;21367;51.930;8.112;2023-07-24T09:23:46;11.40;;;5.53;;
35223;SDS011;21367;51.930;8.112;2023-07-24T09:28:52;6.65;;;4.85;;
35223;SDS011;21367;51.930;8.112;2023-07-24T09:33:59;6.57;;;4.00;;
35223;SDS011;21367;51.930;8.112;2023-07-24T09:39:02;8.07;;;3.70;;
35223;SDS011;21367;51.930;8.112;2023-07-24T09:44:11;4.78;;;3.60;;
35223;SDS011;21367;51.930;8.112;2023-07-24T09:49:18;9.30;;;3.80;;
35223;SDS011;21367;51.930;8.112;2023-07-24T09:54:23;4.70;;;2.55;;
35223;SDS011;21367;51.930;8.112;2023-07-24T09:59:31;5.70;;;2.72;;
35223;SDS011;21367;51.930;8.112;2023-07-24T10:04:37;6.18;;;2.15;;
35223;SDS011;21367;51.930;8.112;2023-07-24T10:09:43;7.00;;;1.92;;
35223;SDS011;21367;51.930;8.112;2023-07-24T10:14:47;2.72;;;1.65;;
35223;SDS011;21367;51.930;8.112;2023-07-24T10:20:01;3.75;;;1.83;;
35223;SDS011;21367;51.930;8.112;2023-07-24T10:25:06;2.42;;;1.65;;
35223;SDS011;21367;51.930;8.112;2023-07-24T10:30:11;3.45;;;1.90;;
35223;SDS011;21367;51.930;8.112;2023-07-24T10:35:18;3.00;;;2.08;;
35223;SDS011;21367;51.930;8.112;2023-07-24T10:40:23;2.30;;;1.77;;
35223;SDS011;21367;51.930;8.112;2023-07-24T10:45:26;2.55;;;2.00;;
35223;SDS011;21367;51.930;8.112;2023-07-24T10:50:43;3.75;;;3.20;;
35223;SDS011;21367;51.930;8.112;2023-07-24T10:55:48;5.93;;;3.83;;
35223;SDS011;21367;51.930;8.112;2023-07-24T11:00:53;7.03;;;4.57;;
35223;SDS011;21367;51.930;8.112;2023-07-24T11:06:01;10.05;;;4.95;;
35223;SDS011;21367;51.930;8.112;2023-07-24T11:11:05;8.10;;;5.00;;
35223;SDS011;21367;51.930;8.112;2023-07-24T11:16:10;9.40;;;5.75;;
35223;SDS011;21367;51.930;8.112;2023-07-24T11:21:16;9.20;;;6.78;;
35223;SDS011;21367;51.930;8.112;2023-07-24T11:26:20;11.75;;;6.18;;
35223;SDS011;21367;51.930;8.112;2023-07-24T11:31:25;10.07;;;7.50;;
35223;SDS011;21367;51.930;8.112;2023-07-24T11:36:31;12.60;;;8.85;;
35223;SDS011;21367;51.930;8.112;2023-07-24T11:41:35;10.90;;;7.28;;
35223;SDS011;21367;51.930;8.112;2023-07-24T11:46:39;9.35;;;5.68;;
35223;SDS011;21367;51.930;8.112;2023-07-24T11:51:46;5.95;;;3.85;;
35223;SDS011;21367;51.930;8.112;2023-07-24T11:56:50;4.78;;;3.08;;
35223;SDS011;21367;51.930;8.112;2023-07-24T12:01:53;5.20;;;2.63;;
35223;SDS011;21367;51.930;8.112;2023-07-24T12:07:00;4.57;;;2.67;;
35223;SDS011;21367;51.930;8.112;2023-07-24T12:12:04;10.23;;;3.15;;
35223;SDS011;21367;51.930;8.112;2023-07-24T12:17:08;5.72;;;3.95;;
35223;SDS011;21367;51.930;8.112;2023-07-24T12:22:17;8.70;;;4.93;;
35223;SDS011;21367;51.930;8.112;2023-07-24T12:27:21;13.40;;;4.88;;
35223;SDS011;21367;51.930;8.112;2023-07-24T12:32:24;9.80;;;5.22;;
35223;SDS011;21367;51.930;8.112;2023-07-24T12:37:31;11.63;;;5.35;;
35223;SDS011;21367;51.930;8.112;2023-07-24T12:42:34;13.27;;;5.90;;
35223;SDS011;21367;51.930;8.112;2023-07-24T12:47:38;14.52;;;7.20;;
35223;SDS011;21367;51.930;8.112;2023-07-24T12:52:44;12.35;;;7.25;;
35223;SDS011;21367;51.930;8.112;2023-07-24T12:57:48;10.60;;;7.18;;
35223;SDS011;21367;51.930;8.112;2023-07-24T13:02:51;13.80;;;7.53;;
35223;SDS011;21367;51.930;8.112;2023-07-24T13:07:58;17.20;;;8.77;;
35223;SDS011;21367;51.930;8.112;2023-07-24T13:13:02;16.30;;;9.57;;
35223;SDS011;21367;51.930;8.112;2023-07-24T13:18:05;9.05;;;6.85;;
35223;SDS011;21367;51.930;8.112;2023-07-24T13:23:11;10.80;;;5.28;;
35223;SDS011;21367;51.930;8.112;2023-07-24T13:28:15;10.38;;;4.57;;
35223;SDS011;21367;51.930;8.112;2023-07-24T13:33:19;7.90;;;4.00;;
35223;SDS011;21367;51.930;8.112;2023-07-24T13:38:25;5.18;;;2.67;;
35223;SDS011;21367;51.930;8.112;2023-07-24T13:43:29;3.92;;;2.30;;
35223;SDS011;21367;51.930;8.112;2023-07-24T13:48:33;6.22;;;1.90;;
35223;SDS011;21367;51.930;8.112;2023-07-24T13:53:40;5.15;;;2.00;;
35223;SDS011;21367;51.930;8.112;2023-07-24T13:58:43;6.00;;;2.70;;
35223;SDS011;21367;51.930;8.112;2023-07-24T14:03:47;3.28;;;1.88;;
35223;SDS011;21367;51.930;8.112;2023-07-24T14:08:54;4.60;;;1.40;;
35223;SDS011;21367;51.930;8.112;2023-07-24T14:13:57;4.63;;;1.10;;
35223;SDS011;21367;51.930;8.112;2023-07-24T14:19:01;2.28;;;1.13;;
35223;SDS011;21367;51.930;8.112;2023-07-24T14:24:07;2.08;;;1.02;;
35223;SDS011;21367;51.930;8.112;2023-07-24T14:29:11;2.50;;;1.02;;
35223;SDS011;21367;51.930;8.112;2023-07-24T14:34:17;3.05;;;0.80;;
35223;SDS011;21367;51.930;8.112;2023-07-24T14:39:23;4.03;;;1.40;;
35223;SDS011;21367;51.930;8.112;2023-07-24T14:44:27;3.88;;;1.60;;
35223;SDS011;21367;51.930;8.112;2023-07-24T14:49:31;6.40;;;2.40;;
35223;SDS011;21367;51.930;8.112;2023-07-24T14:54:37;5.72;;;1.77;;
35223;SDS011;21367;51.930;8.112;2023-07-24T14:59:40;5.45;;;1.80;;
35223;SDS011;21367;51.930;8.112;2023-07-24T15:04:44;3.17;;;1.92;;
35223;SDS011;21367;51.930;8.112;2023-07-24T15:09:50;2.85;;;2.15;;
35223;SDS011;21367;51.930;8.112;2023-07-24T15:14:54;5.93;;;2.70;;
35223;SDS011;21367;51.930;8.112;2023-07-24T15:19:58;7.68;;;2.50;;
35223;SDS011;21367;51.930;8.112;2023-07-24T15:25:04;5.43;;;2.78;;
35223;SDS011;21367;51.930;8.112;2023-07-24T15:30:10;4.18;;;2.63;;
35223;SDS011;21367;51.930;8.112;2023-07-24T15:35:13;3.78;;;2.35;;
35223;SDS011;21367;51.930;8.112;2023-07-24T15:40:20;6.95;;;3.10;;
35223;SDS011;21367;51.930;8.112;2023-07-24T15:45:24;4.35;;;2.70;;
35223;SDS011;21367;51.930;8.112;2023-07-24T15:50:27;4.38;;;2.67;;
35223;SDS011;21367;51.930;8.112;2023-07-24T15:55:33;3.50;;;2.75;;
35223;SDS011;21367;51.930;8.112;2023-07-24T16:00:38;4.32;;;3.15;;
35223;SDS011;21367;51.930;8.112;2023-07-24T16:05:45;5.65;;;3.10;;
35223;SDS011;21367;51.930;8.112;2023-07-24T16:10:51;5.00;;;2.42;;
35223;SDS011;21367;51.930;8.112;2023-07-24T16:15:55;9.00;;;2.80;;
35223;SDS011;21367;51.930;8.112;2023-07-24T16:20:59;3.60;;;2.50;;
35223;SDS011;21367;51.930;8.112;2023-07-24T16:26:05;3.80;;;2.28;;
35223;SDS011;21367;51.930;8.112;2023-07-24T16:31:09;6.38;;;3.28;;
35223;SDS011;21367;51.930;8.112;2023-07-24T16:36:12;5.78;;;3.05;;
35223;SDS011;21367;51.930;8.112;2023-07-24T16:41:19;6.45;;;3.55;;
35223;SDS011;21367;51.930;8.112;2023-07-24T16:46:23;9.18;;;5.30;;
35223;SDS011;21367;51.930;8.112;2023-07-24T16:51:26;6.35;;;3.58;;
35223;SDS011;21367;51.930;8.112;2023-07-24T16:56:33;5.32;;;2.70;;
35223;SDS011;21367;51.930;8.112;2023-07-24T17:01:37;8.82;;;3.47;;
35223;SDS011;21367;51.930;8.112;2023-07-24T17:06:40;7.13;;;3.30;;
35223;SDS011;21367;51.930;8.112;2023-07-24T17:11:47;8.95;;;3.70;;
35223;SDS011;21367;51.930;8.112;2023-07-24T17:16:51;5.88;;;3.58;;
35223;SDS011;21367;51.930;8.112;2023-07-24T17:21:55;8.68;;;5.05;;
35223;SDS011;21367;51.930;8.112;2023-07-24T17:27:01;17.95;;;6.95;;
35223;SDS011;21367;51.930;8.112;2023-07-24T17:32:05;13.23;;;6.07;;
35223;SDS011;21367;51.930;8.112;2023-07-24T17:37:11;9.73;;;6.32;;
35223;SDS011;21367;51.930;8.112;2023-07-24T17:42:18;13.90;;;6.60;;
35223;SDS011;21367;51.930;8.112;2023-07-24T17:47:22;9.57;;;6.10;;
35223;SDS011;21367;51.930;8.112;2023-07-24T17:52:25;14.75;;;6.13;;
35223;SDS011;21367;51.930;8.112;2023-07-24T17:57:31;15.95;;;6.72;;
35223;SDS011;21367;51.930;8.112;2023-07-24T18:02:35;13.10;;;6.10;;
35223;SDS011;21367;51.930;8.112;2023-07-24T18:07:39;6.75;;;4.40;;
35223;SDS011;21367;51.930;8.112;2023-07-24T18:12:45;6.05;;;3.38;;
35223;SDS011;21367;51.930;8.112;2023-07-24T18:17:49;4.57;;;3.03;;
35223;SDS011;21367;51.930;8.112;2023-07-24T18:22:53;6.75;;;3.13;;
35223;SDS011;21367;51.930;8.112;2023-07-24T18:27:59;8.02;;;3.40;;
35223;SDS011;21367;51.930;8.112;2023-07-24T18:33:02;8.05;;;2.97;;
35223;SDS011;21367;51.930;8.112;2023-07-24T18:38:06;10.50;;;3.20;;
35223;SDS011;21367;51.930;8.112;2023-07-24T18:43:12;11.70;;;3.83;;
35223;SDS011;21367;51.930;8.112;2023-07-24T18:48:16;5.07;;;3.05;;
35223;SDS011;21367;51.930;8.112;2023-07-24T18:53:20;4.78;;;2.90;;
35223;SDS011;21367;51.930;8.112;2023-07-24T18:58:26;7.57;;;3.20;;
35223;SDS011;21367;51.930;8.112;2023-07-24T19:03:30;6.53;;;3.20;;
35223;SDS011;21367;51.930;8.112;2023-07-24T19:08:33;13.15;;;3.80;;
35223;SDS011;21367;51.930;8.112;2023-07-24T19:13:39;5.93;;;3.47;;
35223;SDS011;21367;51.930;8.112;2023-07-24T19:18:43;7.68;;;3.33;;
35223;SDS011;21367;51.930;8.112;2023-07-24T19:23:47;7.35;;;3.03;;
35223;SDS011;21367;51.930;8.112;2023-07-24T19:28:53;9.30;;;4.35;;
35223;SDS011;21367;51.930;8.112;2023-07-24T19:33:57;9.13;;;4.03;;
35223;SDS011;21367;51.930;8.112;2023-07-24T19:39:01;15.25;;;4.53;;
35223;SDS011;21367;51.930;8.112;2023-07-24T19:44:09;6.80;;;3.80;;
35223;SDS011;21367;51.930;8.112;2023-07-24T19:49:12;8.00;;;4.45;;
35223;SDS011;21367;51.930;8.112;2023-07-24T19:54:16;9.23;;;4.72;;
35223;SDS011;21367;51.930;8.112;2023-07-24T19:59:22;7.78;;;4.07;;
35223;SDS011;21367;51.930;8.112;2023-07-24T20:04:26;17.10;;;3.78;;
35223;SDS011;21367;51.930;8.112;2023-07-24T20:09:30;10.65;;;4.28;;
35223;SDS011;21367;51.930;8.112;2023-07-24T20:14:37;9.45;;;3.67;;
35223;SDS011;21367;51.930;8.112;2023-07-24T20:19:40;15.85;;;3.65;;
35223;SDS011;21367;51.930;8.112;2023-07-24T20:24:44;10.07;;;3.88;;
35223;SDS011;21367;51.930;8.112;2023-07-24T20:29:50;10.23;;;3.60;;
35223;SDS011;21367;51.930;8.112;2023-07-24T20:34:54;6.82;;;3.78;;
35223;SDS011;21367;51.930;8.112;2023-07-24T20:39:58;11.25;;;3.83;;
35223;SDS011;21367;51.930;8.112;2023-07-24T20:45:05;5.63;;;3.15;;
35223;SDS011;21367;51.930;8.112;2023-07-24T20:50:09;14.88;;;4.05;;
35223;SDS011;21367;51.930;8.112;2023-07-24T20:55:13;12.23;;;4.25;;
35223;SDS011;21367;51.930;8.112;2023-07-24T21:00:19;10.00;;;3.75;;
35223;SDS011;21367;51.930;8.112;2023-07-24T21:05:23;6.40;;;2.78;;
35223;SDS011;21367;51.930;8.112;2023-07-24T21:10:27;16.00;;;2.95;;
35223;SDS011;21367;51.930;8.112;2023-07-24T21:15:33;9.05;;;2.80;;
35223;SDS011;21367;51.930;8.112;2023-07-24T21:25:49;8.63;;;2.20;;
35223;SDS011;21367;51.930;8.112;2023-07-24T21:31:02;6.65;;;2.17;;
35223;SDS011;21367;51.930;8.112;2023-07-24T21:36:10;12.32;;;2.70;;
35223;SDS011;21367;51.930;8.112;2023-07-24T21:41:13;9.85;;;2.25;;
35223;SDS011;21367;51.930;8.112;2023-07-24T21:46:19;7.65;;;2.28;;
35223;SDS011;21367;51.930;8.112;2023-07-24T21:51:23;9.77;;;2.30;;
35223;SDS011;21367;51.930;8.112;2023-07-24T21:56:27;13.13;;;2.40;;
35223;SDS011;21367;51.930;8.112;2023-07-24T22:01:33;10.23;;;2.33;;
35223;SDS011;21367;51.930;8.112;2023-07-24T22:11:40;9.48;;;2.30;;
35223;SDS011;21367;51.930;8.112;2023-07-24T22:16:46;14.38;;;2.45;;
35223;SDS011;21367;51.930;8.112;2023-07-24T22:21:50;12.57;;;2.47;;
35223;SDS011;21367;51.930;8.112;2023-07-24T22:26:54;9.88;;;2.20;;
35223;SDS011;21367;51.930;8.112;2023-07-24T22:32:00;19.40;;;2.38;;
35223;SDS011;21367;51.930;8.112;2023-07-24T22:37:05;7.93;;;2.28;;
35223;SDS011;21367;51.930;8.112;2023-07-24T22:42:09;8.18;;;2.10;;
35223;SDS011;21367;51.930;8.112;2023-07-24T22:47:15;4.30;;;1.90;;
35223;SDS011;21367;51.930;8.112;2023-07-24T22:52:19;13.07;;;2.10;;
35223;SDS011;21367;51.930;8.112;2023-07-24T22:57:23;7.10;;;1.75;;
35223;SDS011;21367;51.930;8.112;2023-07-24T23:02:29;14.65;;;2.42;;
35223;SDS011;21367;51.930;8.112;2023-07-24T23:07:33;11.98;;;2.65;;
35223;SDS011;21367;51.930;8.112;2023-07-24T23:12:37;9.32;;;2.15;;
35223;SDS011;21367;51.930;8.112;2023-07-24T23:17:43;8.90;;;2.17;;
35223;SDS011;21367;51.930;8.112;2023-07-24T23:27:50;8.30;;;2.17;;
35223;SDS011;21367;51.930;8.112;2023-07-24T23:32:56;7.88;;;1.80;;
35223;SDS011;21367;51.930;8.112;2023-07-24T23:38:00;4.80;;;1.73;;
35223;SDS011;21367;51.930;8.112;2023-07-24T23:43:04;11.70;;;2.45;;
35223;SDS011;21367;51.930;8.112;2023-07-24T23:48:10;10.20;;;2.58;;
35223;SDS011;21367;51.930;8.112;2023-07-24T23:53:14;9.05;;;2.50;;
35223;SDS011;21367;51.930;8.112;2023-07-24T23:58:18;11.80;;;2.30;;
